createdAt,value
2019-06-15T00:00:26.360Z,77.90
2019-06-15T00:03:20.981Z,77.80
2019-06-15T00:06:16.252Z,77.60
2019-06-15T00:09:11.339Z,77.70
2019-06-15T00:12:08.693Z,78.00
2019-06-15T00:15:02.794Z,78.30
2019-06-15T00:17:57.327Z,78.40
2019-06-15T00:20:51.886Z,78.50
2019-06-15T00:23:46.317Z,78.70
2019-06-15T00:26:42.419Z,78.70
2019-06-15T00:29:37.140Z,78.80
2019-06-15T00:32:31.552Z,79.00
2019-06-15T00:35:26.175Z,79.00
2019-06-15T00:38:20.243Z,78.70
2019-06-15T00:41:14.621Z,78.70
2019-06-15T00:44:08.813Z,78.60
2019-06-15T00:47:03.424Z,78.50
2019-06-15T00:50:00.074Z,78.10
2019-06-15T00:52:54.401Z,77.60
2019-06-15T00:55:48.982Z,76.90
2019-06-15T00:58:45.029Z,76.60
2019-06-15T01:01:39.523Z,76.50
2019-06-15T01:04:35.422Z,76.10
2019-06-15T01:07:29.795Z,75.70
2019-06-15T01:10:25.770Z,75.50
2019-06-15T01:13:20.629Z,75.10
2019-06-15T01:16:14.964Z,74.80
2019-06-15T01:19:10.885Z,74.80
2019-06-15T01:22:05.553Z,75.00
2019-06-15T01:25:05.667Z,75.10
2019-06-15T01:27:56.786Z,74.80
2019-06-15T01:30:52.176Z,74.80
2019-06-15T01:33:46.713Z,74.60
2019-06-15T01:36:42.424Z,74.50
2019-06-15T01:39:38.199Z,74.60
2019-06-15T01:42:32.961Z,74.60
2019-06-15T01:45:30.598Z,74.30
2019-06-15T01:48:25.070Z,74.00
2019-06-15T01:51:20.799Z,73.80
2019-06-15T01:54:16.393Z,73.90
2019-06-15T01:57:10.948Z,73.90
2019-06-15T02:00:08.508Z,74.10
2019-06-15T02:03:03.059Z,74.00
2019-06-15T02:05:57.432Z,74.10
2019-06-15T02:08:51.585Z,74.10
2019-06-15T02:11:45.689Z,74.00
2019-06-15T02:14:41.904Z,74.00
2019-06-15T02:17:37.000Z,73.80
2019-06-15T02:20:31.109Z,73.80
2019-06-15T02:23:25.352Z,73.60
2019-06-15T02:26:19.497Z,73.20
2019-06-15T02:29:14.190Z,72.80
2019-06-15T02:32:08.647Z,72.60
2019-06-15T02:35:04.644Z,72.70
2019-06-15T02:38:00.924Z,72.70
2019-06-15T02:40:55.403Z,72.50
2019-06-15T02:43:50.049Z,72.50
2019-06-15T02:46:45.750Z,73.00
2019-06-15T02:49:40.371Z,73.20
2019-06-15T02:52:35.514Z,73.10
2019-06-15T02:55:31.886Z,73.80
2019-06-15T02:58:26.049Z,73.00
2019-06-15T03:01:20.932Z,72.80
2019-06-15T03:04:15.617Z,72.70
2019-06-15T03:07:15.082Z,72.70
2019-06-15T03:10:09.367Z,72.10
2019-06-15T03:13:04.630Z,71.50
2019-06-15T03:15:59.183Z,71.50
2019-06-15T03:18:53.462Z,71.10
2019-06-15T03:21:49.546Z,71.10
2019-06-15T03:24:44.102Z,71.50
2019-06-15T03:27:38.909Z,71.20
2019-06-15T03:30:34.913Z,71.10
2019-06-15T03:33:31.571Z,71.30
2019-06-15T03:36:25.822Z,71.00
2019-06-15T03:39:20.644Z,71.00
2019-06-15T03:42:14.895Z,71.10
2019-06-15T03:45:11.512Z,71.00
2019-06-15T03:48:07.465Z,70.80
2019-06-15T03:51:02.175Z,70.40
2019-06-15T03:53:57.800Z,70.00
2019-06-15T03:56:53.204Z,69.40
2019-06-15T03:59:47.465Z,68.90
2019-06-15T04:02:42.129Z,68.30
2019-06-15T04:05:36.839Z,67.90
2019-06-15T04:08:31.956Z,68.10
2019-06-15T04:11:26.333Z,67.90
2019-06-15T04:14:21.016Z,67.50
2019-06-15T04:17:17.003Z,67.00
2019-06-15T04:20:12.503Z,66.80
2019-06-15T04:23:07.350Z,66.30
2019-06-15T04:26:03.024Z,66.10
2019-06-15T04:28:58.710Z,66.00
2019-06-15T04:31:53.119Z,65.90
2019-06-15T04:34:47.708Z,65.70
2019-06-15T04:37:44.706Z,65.50
2019-06-15T04:40:40.775Z,64.70
2019-06-15T04:43:38.785Z,64.30
2019-06-15T04:46:34.210Z,63.90
2019-06-15T04:49:29.975Z,62.80
2019-06-15T04:53:29.844Z,61.60
2019-06-15T04:56:22.247Z,61.10
2019-06-15T04:59:20.790Z,60.70
2019-06-15T05:02:17.680Z,60.20
2019-06-15T05:05:15.830Z,59.50
2019-06-15T05:08:14.004Z,58.90
2019-06-15T05:11:52.238Z,58.40
2019-06-15T05:15:37.162Z,58.00
2019-06-15T05:18:31.004Z,57.10
2019-06-15T05:21:28.370Z,57.10
2019-06-15T05:24:23.166Z,56.60
2019-06-15T05:27:18.869Z,55.70
2019-06-15T05:30:27.036Z,55.10
2019-06-15T05:33:49.201Z,53.90
2019-06-15T05:36:45.956Z,54.20
2019-06-15T05:40:26.135Z,53.70
2019-06-15T08:25:28.670Z,46.50
2019-06-15T08:31:42.964Z,45.50
2019-06-15T08:34:38.125Z,44.90
2019-06-15T08:37:35.901Z,44.60
2019-06-15T08:40:43.769Z,44.20
2019-06-15T08:43:41.177Z,43.50
2019-06-15T08:46:45.140Z,43.20
2019-06-15T08:49:44.142Z,42.80
2019-06-15T08:53:25.973Z,42.50
2019-06-15T08:56:25.800Z,42.60
2019-06-15T09:00:07.032Z,42.80
2019-06-15T09:03:17.787Z,42.10
2019-06-15T09:06:33.038Z,42.00
2019-06-15T09:16:28.258Z,41.50
2019-06-15T09:29:59.871Z,40.60
2019-06-15T09:32:59.553Z,40.00
2019-06-15T09:35:57.358Z,39.60
2019-06-15T09:38:54.640Z,39.40
2019-06-15T09:42:06.419Z,39.10
2019-06-15T09:45:18.788Z,38.80
2019-06-15T09:48:30.821Z,38.90
2019-06-15T09:51:43.622Z,38.80
2019-06-15T09:54:39.405Z,38.60
2019-06-15T09:57:39.580Z,38.80
2019-06-15T10:03:42.749Z,39.20
2019-06-15T10:07:13.922Z,39.20
2019-06-15T10:10:39.831Z,39.10
2019-06-15T10:13:48.343Z,38.80
2019-06-15T10:16:45.240Z,38.50
2019-06-15T10:19:41.022Z,38.30
2019-06-15T10:22:41.315Z,38.30
2019-06-15T10:25:37.416Z,38.20
2019-06-15T10:28:33.725Z,37.70
2019-06-15T10:31:28.937Z,37.50
2019-06-15T10:34:26.098Z,37.40
2019-06-15T10:37:26.767Z,37.70
2019-06-15T10:40:23.832Z,37.80
2019-06-15T10:43:32.817Z,37.50
2019-06-15T10:46:28.759Z,38.00
2019-06-15T10:49:25.687Z,38.40
2019-06-15T10:52:26.671Z,38.20
2019-06-15T10:55:31.389Z,38.00
2019-06-15T10:58:34.962Z,37.60
2019-06-15T11:04:37.175Z,37.70
2019-06-15T11:07:48.176Z,38.30
2019-06-15T11:11:11.060Z,38.60
2019-06-15T11:14:12.748Z,38.90
2019-06-15T11:17:26.258Z,39.40
2019-06-15T11:23:42.362Z,40.60
2019-06-15T11:27:17.925Z,41.20
2019-06-15T11:31:03.215Z,41.80
2019-06-15T11:34:06.404Z,42.30
2019-06-15T11:37:05.148Z,42.90
2019-06-15T11:40:04.019Z,43.20
2019-06-15T11:46:38.452Z,43.40
2019-06-15T11:49:40.496Z,43.60
2019-06-15T11:52:40.639Z,43.90
2019-06-15T11:59:17.838Z,44.10
2019-06-15T12:02:24.605Z,43.90
2019-06-15T12:09:33.711Z,43.80
2019-06-15T12:29:53.025Z,44.10
2019-06-15T12:33:04.587Z,44.30
2019-06-15T12:36:18.115Z,44.40
2019-06-15T12:39:03.073Z,44.70
2019-06-15T12:42:01.472Z,45.20
2019-06-15T12:45:14.236Z,45.50
2019-06-15T12:48:08.924Z,45.90
2019-06-15T12:51:13.168Z,46.00
2019-06-15T12:54:09.122Z,46.40
2019-06-15T12:57:06.168Z,46.80
2019-06-15T13:00:02.612Z,47.00
2019-06-15T13:02:57.164Z,47.10
2019-06-15T13:08:55.280Z,47.50
2019-06-15T13:11:50.406Z,47.50
2019-06-15T13:14:45.186Z,47.50
2019-06-15T13:17:33.755Z,48.20
2019-06-15T13:20:33.194Z,47.60
2019-06-15T13:23:27.854Z,47.80
2019-06-15T13:26:22.330Z,47.80
2019-06-15T13:29:18.007Z,47.80
2019-06-15T13:32:14.074Z,47.50
2019-06-15T13:35:08.555Z,47.20
2019-06-15T13:43:53.767Z,47.30
2019-06-15T13:46:48.246Z,47.30
2019-06-15T13:49:42.587Z,47.10
2019-06-15T13:55:32.671Z,47.50
2019-06-15T13:58:27.238Z,47.60
2019-06-15T14:01:34.169Z,47.50
2019-06-15T14:04:27.068Z,47.20
2019-06-15T14:07:23.018Z,47.70
2019-06-15T14:16:14.532Z,48.70
2019-06-15T14:19:22.516Z,48.00
2019-06-15T14:22:18.660Z,47.60
2019-06-15T14:25:12.922Z,47.40
2019-06-15T14:28:08.932Z,46.80
2019-06-15T14:31:06.757Z,46.60
2019-06-15T14:34:01.617Z,46.20
2019-06-15T14:39:55.360Z,45.20
2019-06-15T14:42:49.755Z,45.40
2019-06-15T14:45:58.363Z,46.20
2019-06-15T14:48:41.321Z,47.00
2019-06-15T14:54:27.099Z,48.20
2019-06-15T14:57:21.400Z,48.80
2019-06-15T15:06:27.476Z,49.90
2019-06-15T15:12:52.065Z,50.30
2019-06-15T15:16:00.749Z,50.30
2019-06-15T15:18:56.723Z,50.50
2019-06-15T15:21:50.825Z,50.60
2019-06-15T15:24:45.003Z,51.00
2019-06-15T15:27:40.674Z,51.20
2019-06-15T15:30:42.982Z,51.30
2019-06-15T15:33:38.140Z,51.50
2019-06-15T15:39:51.488Z,52.00
2019-06-15T15:42:46.176Z,52.30
2019-06-15T15:45:43.115Z,52.90
2019-06-15T15:48:46.685Z,53.60
2019-06-15T15:51:40.128Z,53.80
2019-06-15T15:54:48.438Z,54.30
2019-06-15T15:57:49.480Z,54.60
2019-06-15T16:00:43.470Z,55.30
2019-06-15T16:06:29.159Z,55.40
2019-06-15T16:09:26.954Z,55.40
2019-06-15T16:12:19.657Z,55.40
2019-06-15T16:15:13.021Z,55.20
2019-06-15T16:18:07.334Z,55.10
2019-06-15T16:21:01.604Z,54.90
2019-06-15T16:23:58.426Z,54.90
2019-06-15T16:26:52.043Z,54.90
2019-06-15T16:29:47.157Z,55.00
2019-06-15T16:32:41.246Z,54.90
2019-06-15T16:35:36.284Z,54.80
2019-06-15T16:41:51.073Z,55.00
2019-06-15T16:44:39.639Z,54.90
2019-06-15T16:47:36.416Z,55.00
2019-06-15T16:50:46.974Z,55.00
2019-06-15T16:53:40.941Z,55.10
2019-06-15T16:56:36.133Z,55.00
2019-06-15T16:59:31.610Z,55.10
2019-06-15T17:02:26.161Z,55.10
2019-06-15T17:05:20.402Z,55.20
2019-06-15T17:08:28.249Z,55.40
2019-06-15T17:11:23.090Z,55.40
2019-06-15T17:14:17.523Z,55.30
2019-06-15T17:17:12.091Z,55.40
2019-06-15T17:20:10.766Z,55.40
2019-06-15T17:23:06.763Z,55.50
2019-06-15T17:26:00.687Z,55.60
2019-06-15T17:28:56.697Z,55.60
2019-06-15T17:31:53.617Z,55.60
2019-06-15T17:34:48.075Z,55.70
2019-06-15T17:37:42.320Z,55.90
2019-06-15T17:40:36.543Z,56.20
2019-06-15T17:43:30.881Z,56.10
2019-06-15T17:46:28.931Z,56.20
2019-06-15T17:52:12.773Z,56.50
2019-06-15T17:55:07.282Z,56.50
2019-06-15T17:58:01.817Z,56.70
2019-06-15T18:00:57.581Z,56.80
2019-06-15T18:03:54.575Z,56.90
2019-06-15T18:06:47.062Z,56.70
2019-06-15T18:09:41.502Z,56.90
2019-06-15T18:12:36.000Z,57.00
2019-06-15T18:15:30.406Z,57.00
2019-06-15T18:18:27.569Z,57.00
2019-06-15T18:21:20.106Z,57.10
2019-06-15T18:24:16.324Z,57.20
2019-06-15T18:27:10.407Z,57.20
2019-06-15T18:30:06.547Z,57.30
2019-06-15T18:32:59.853Z,57.20
2019-06-15T18:35:54.309Z,57.10
2019-06-15T18:38:48.449Z,56.80
2019-06-15T18:41:42.496Z,56.60
2019-06-15T18:47:33.044Z,56.40
2019-06-15T18:50:37.849Z,56.50
2019-06-15T18:53:35.465Z,56.60
2019-06-15T18:56:30.522Z,57.00
2019-06-15T18:59:26.086Z,57.10
2019-06-15T19:02:19.955Z,57.20
2019-06-15T19:05:16.781Z,57.00
2019-06-15T19:08:10.821Z,56.90
2019-06-15T19:11:07.085Z,57.00
2019-06-15T19:14:00.097Z,57.00
2019-06-15T19:16:56.524Z,57.10
2019-06-15T19:19:52.852Z,57.20
2019-06-15T19:26:12.642Z,57.50
2019-06-15T19:29:06.707Z,57.70
2019-06-15T19:32:01.252Z,57.90
2019-06-15T19:34:57.015Z,58.10
2019-06-15T19:37:50.390Z,58.30
2019-06-15T19:40:46.045Z,58.50
2019-06-15T19:43:46.609Z,58.60
2019-06-15T19:46:39.419Z,58.60
2019-06-15T19:49:36.341Z,58.60
2019-06-15T19:52:31.974Z,58.50
2019-06-15T19:55:26.975Z,58.50
2019-06-15T19:58:22.169Z,58.50
2019-06-15T20:01:12.565Z,58.50
2019-06-15T20:04:06.682Z,58.60
2019-06-15T20:10:26.634Z,58.90
2019-06-15T20:13:25.268Z,58.80
2019-06-15T20:16:21.898Z,59.00
2019-06-15T20:19:17.506Z,59.10
2019-06-15T20:22:13.770Z,59.20
2019-06-15T20:25:08.768Z,59.20
2019-06-15T20:28:07.342Z,59.40
2019-06-15T20:31:01.820Z,59.60
2019-06-15T20:33:57.573Z,59.70
2019-06-15T20:36:50.415Z,59.80
2019-06-15T20:39:46.756Z,60.00
2019-06-15T20:42:40.427Z,60.10
2019-06-15T20:45:36.966Z,60.40
2019-06-15T20:48:30.570Z,60.50
2019-06-15T20:51:25.008Z,60.50
2019-06-15T20:54:19.252Z,60.60
2019-06-15T20:57:13.529Z,60.60
2019-06-15T21:00:08.847Z,60.70
2019-06-15T21:03:03.314Z,60.90
2019-06-15T21:09:20.139Z,60.90
2019-06-15T21:12:31.268Z,60.80
2019-06-15T21:15:28.657Z,60.90
2019-06-15T21:18:26.079Z,61.00
2019-06-15T21:23:42.041Z,61.10
2019-06-15T21:26:36.950Z,61.30
2019-06-15T21:32:56.930Z,61.20
2019-06-15T21:35:52.711Z,61.20
2019-06-15T21:38:47.514Z,61.30
2019-06-15T21:41:43.010Z,61.40
2019-06-15T21:44:37.318Z,61.30
2019-06-15T21:47:31.562Z,61.20
2019-06-15T21:53:48.763Z,61.20
2019-06-15T21:56:42.840Z,61.10
2019-06-15T21:59:37.271Z,61.20
2019-06-15T22:02:31.851Z,61.40
2019-06-15T22:05:26.249Z,61.40
2019-06-15T22:08:20.700Z,61.50
2019-06-15T22:11:15.967Z,61.60
2019-06-15T22:14:10.621Z,61.70
2019-06-15T22:17:06.761Z,61.70
2019-06-15T22:20:06.751Z,61.60
2019-06-15T22:23:01.111Z,61.90
2019-06-15T22:25:57.030Z,62.00
2019-06-15T22:28:53.896Z,62.30
2019-06-15T22:31:47.052Z,62.40
2019-06-15T22:34:41.805Z,62.50
2019-06-15T22:37:36.456Z,62.50
2019-06-15T22:40:30.763Z,62.60
2019-06-15T22:43:27.316Z,62.70
2019-06-15T22:46:20.751Z,63.00
2019-06-15T22:49:16.159Z,63.10
2019-06-15T22:52:10.527Z,63.10
2019-06-15T22:55:06.046Z,62.80
2019-06-15T22:58:06.969Z,62.70
2019-06-15T23:01:01.479Z,62.60
2019-06-15T23:03:57.146Z,62.70
2019-06-15T23:06:51.670Z,62.60
2019-06-15T23:09:46.775Z,62.60
2019-06-15T23:12:41.246Z,62.70
2019-06-15T23:15:37.134Z,62.70
2019-06-15T23:18:31.220Z,62.70
2019-06-15T23:21:26.797Z,63.40
2019-06-15T23:24:21.162Z,62.70
2019-06-15T23:27:16.529Z,62.90
2019-06-15T23:30:11.446Z,63.00
2019-06-15T23:33:06.510Z,62.90
2019-06-15T23:36:06.364Z,63.00
2019-06-15T23:39:00.847Z,63.10
2019-06-15T23:41:56.866Z,63.10
2019-06-15T23:44:51.419Z,62.90
2019-06-15T23:47:47.069Z,62.80
2019-06-15T23:50:41.661Z,62.80
2019-06-15T23:53:36.775Z,62.70
2019-06-15T23:56:31.650Z,62.70
2019-06-15T23:59:26.424Z,62.70
